Time;durP1;ratioP1;P1;durP2;ratioP2;P2;SDS_P1;SDS_P2;PMS_P1;PMS_P2;Temp;Humidity;BMP_temperature;BMP_pressure;BME280_temperature;BME280_humidity;BME280_pressure;Samples;Min_cycle;Max_cycle;Signal;HPM_P1;HPM_P2
2022/12/28 00:00:46;;;;;;;;;;;;;;;5.56;100.00;101495.81;5042235;28;19913;-74
2022/12/28 00:03:11;;;;;;;;;;;;;;;5.59;100.00;101493.03;5040039;28;19913;-74
2022/12/28 00:05:36;;;;;;;;;;;;;;;5.58;100.00;101499.31;5041995;28;20034;-74
2022/12/28 00:08:01;;;;;;;;;;;;;;;5.58;100.00;101488.66;5046588;28;20291;-74
2022/12/28 00:10:27;;;;;;;;;;;;;;;5.61;100.00;101477.84;5045193;28;20030;-74
2022/12/28 00:12:52;;;;;;;;;;;;;;;5.60;100.00;101466.28;5054390;28;19960;-74
2022/12/28 00:15:17;;;;;;;;;;;;;;;5.60;100.00;101466.28;5064383;28;20432;-74
2022/12/28 00:17:42;;;;;;;;;;;;;;;5.62;100.00;101452.03;5034656;28;19920;-74
2022/12/28 00:20:08;;;;;;;;;;;;;;;5.63;100.00;101443.09;5034615;28;19995;-74
2022/12/28 00:22:33;;;;;;;;;;;;;;;5.62;100.00;101428.03;5039829;28;19920;-74
2022/12/28 00:24:58;;;;;;;;;;;;;;;5.62;100.00;101412.03;5049522;28;19913;-74
2022/12/28 00:27:23;;;;;;;;;;;;;;;5.59;100.00;101400.59;5036637;28;19913;-74
2022/12/28 00:29:48;;;;;;;;;;;;;;;5.61;100.00;101397.84;5043946;28;19916;-74
2022/12/28 00:32:14;;;;;;;;;;;;;;;5.57;100.00;101399.75;5038760;28;19913;-74
2022/12/28 00:34:40;;;;;;;;;;;;;;;5.57;100.00;101401.56;5043988;28;19920;-74
2022/12/28 00:37:05;;;;;;;;;;;;;;;5.58;100.00;101398.84;5049720;28;19944;-74
2022/12/28 00:39:30;;;;;;;;;;;;;;;5.62;100.00;101401.38;5038125;28;19920;-74
2022/12/28 00:41:55;;;;;;;;;;;;;;;5.64;100.00;101394.16;5037047;28;20392;-74
2022/12/28 00:44:20;;;;;;;;;;;;;;;5.65;100.00;101393.22;5035670;28;20221;-74
2022/12/28 00:46:45;;;;;;;;;;;;;;;5.67;100.00;101402.91;5033602;28;19924;-74
2022/12/28 00:49:11;;;;;;;;;;;;;;;5.68;100.00;101383.31;5039930;28;19925;-74
2022/12/28 00:51:36;;;;;;;;;;;;;;;5.71;100.00;101392.94;5045778;28;19912;-74
2022/12/28 00:54:01;;;;;;;;;;;;;;;5.69;100.00;101377.03;5052628;28;19912;-74
2022/12/28 00:56:26;;;;;;;;;;;;;;;5.72;100.00;101373.34;5034678;28;19917;-74
2022/12/28 00:58:56;;;;;;;;;;;;;;;5.72;100.00;101363.53;5035496;28;20004;-74
2022/12/28 01:01:22;;;;;;;;;;;;;;;5.73;100.00;101359.97;5038554;28;19920;-74
2022/12/28 01:03:47;;;;;;;;;;;;;;;5.74;100.00;101353.69;5035264;28;19970;-74
2022/12/28 01:06:14;;;;;;;;;;;;;;;5.74;100.00;101356.38;5035832;28;19913;-74
2022/12/28 01:08:39;;;;;;;;;;;;;;;5.75;100.00;101355.44;5039260;28;19916;-74
2022/12/28 01:11:30;;;;;;;;;;;;;;;5.76;100.00;101351.81;5054401;28;19920;-74
2022/12/28 01:13:58;;;;;;;;;;;;;;;5.77;100.00;101344.69;5032023;28;19909;-74
2022/12/28 01:16:24;;;;;;;;;;;;;;;5.80;100.00;101352.56;5049226;28;20008;-74
2022/12/28 01:18:51;;;;;;;;;;;;;;;5.81;100.00;101335.59;5033122;28;19958;-74
2022/12/28 01:21:18;;;;;;;;;;;;;;;5.82;100.00;101325.81;5037375;28;20295;-74
2022/12/28 01:23:44;;;;;;;;;;;;;;;5.84;100.00;101331.94;5033447;28;19920;-74
2022/12/28 01:26:09;;;;;;;;;;;;;;;5.84;100.00;101329.25;5036174;28;19959;-74
2022/12/28 01:28:35;;;;;;;;;;;;;;;5.85;100.00;101320.34;5038876;28;19940;-74
2022/12/28 01:31:04;;;;;;;;;;;;;;;5.86;100.00;101312.25;5053848;28;19963;-74
2022/12/28 01:33:30;;;;;;;;;;;;;;;5.90;100.00;101310.31;5040606;28;20288;-74
2022/12/28 01:35:55;;;;;;;;;;;;;;;5.91;100.00;101312.91;5033847;28;19920;-74
2022/12/28 01:38:21;;;;;;;;;;;;;;;5.93;100.00;101312.84;5039749;28;20067;-74
2022/12/28 01:40:46;;;;;;;;;;;;;;;5.95;100.00;101301.16;5050064;28;20389;-74
2022/12/28 01:43:14;;;;;;;;;;;;;;;5.98;100.00;101299.31;5046957;28;19921;-74
2022/12/28 01:45:41;;;;;;;;;;;;;;;6.00;100.00;101306.28;5047356;28;19913;-74
2022/12/28 01:48:14;;;;;;;;;;;;;;;6.02;100.00;101295.56;5047365;28;20011;-74
2022/12/28 01:50:39;;;;;;;;;;;;;;;6.04;100.00;101296.38;5040891;28;20010;-74
2022/12/28 01:53:05;;;;;;;;;;;;;;;6.06;100.00;101283.81;5048869;28;19966;-74
2022/12/28 01:55:32;;;;;;;;;;;;;;;6.07;100.00;101285.53;5033653;28;19912;-74
2022/12/28 01:58:02;;;;;;;;;;;;;;;6.09;100.00;101264.97;5034706;28;19913;-74
2022/12/28 02:00:27;;;;;;;;;;;;;;;6.16;100.00;101265.56;5047011;28;20003;-74
2022/12/28 02:02:55;;;;;;;;;;;;;;;6.13;100.00;101269.22;5038933;28;20024;-74
2022/12/28 02:05:23;;;;;;;;;;;;;;;6.14;100.00;101257.63;5037214;28;19935;-74
2022/12/28 02:07:54;;;;;;;;;;;;;;;6.16;100.00;101249.53;5043404;28;20015;-74
2022/12/28 02:10:20;;;;;;;;;;;;;;;6.18;100.00;101245.88;5046167;28;19927;-74
2022/12/28 02:12:46;;;;;;;;;;;;;;;6.19;100.00;101250.25;5037842;28;20001;-74
2022/12/28 02:15:11;;;;;;;;;;;;;;;6.22;100.00;101238.56;5051115;28;19955;-74
2022/12/28 02:17:36;;;;;;;;;;;;;;;6.22;100.00;101226.09;5049336;28;19917;-74
2022/12/28 02:20:02;;;;;;;;;;;;;;;6.24;100.00;101221.53;5036036;28;19926;-74
2022/12/28 02:22:27;;;;;;;;;;;;;;;6.27;100.00;101216.06;5046235;28;20368;-74
2022/12/28 02:25:05;;;;;;;;;;;;;;;6.26;100.00;101230.31;5050043;28;19912;-74
2022/12/28 02:27:49;;;;;;;;;;;;;;;6.32;100.00;101212.28;5032943;28;20100;-74
2022/12/28 02:30:14;;;;;;;;;;;;;;;6.26;100.00;101198.28;5035764;28;19920;-74
2022/12/28 02:32:59;;;;;;;;;;;;;;;6.26;100.00;101197.44;5051772;28;19913;-74
2022/12/28 02:35:24;;;;;;;;;;;;;;;6.27;100.00;101186.69;5042772;28;19913;-74
2022/12/28 02:38:02;;;;;;;;;;;;;;;6.24;100.00;101184.19;5046338;28;20310;-74
2022/12/28 02:40:33;;;;;;;;;;;;;;;6.27;100.00;101186.69;5034480;28;20297;-74
2022/12/28 02:43:00;;;;;;;;;;;;;;;6.26;100.00;101181.44;5038075;28;19917;-74
2022/12/28 02:51:07;;;;;;;;;;;;;;;6.25;100.00;101171.69;5039144;28;19993;-74
2022/12/28 02:53:42;;;;;;;;;;;;;;;6.23;100.00;101165.56;5041777;28;19968;-74
2022/12/28 02:56:23;;;;;;;;;;;;;;;6.23;100.00;101160.22;5033243;28;20230;-74
2022/12/28 02:59:07;;;;;;;;;;;;;;;6.22;100.00;101162.06;5030909;28;19948;-74
2022/12/28 03:01:58;;;;;;;;;;;;;;;6.22;100.00;101156.72;5047915;28;19935;-74
2022/12/28 03:04:35;;;;;;;;;;;;;;;6.23;100.00;101154.91;5017542;28;20337;-74
2022/12/28 03:10:07;;;;;;;;;;;;;;;6.21;100.00;101149.63;5039899;28;20366;-74
2022/12/28 03:12:37;;;;;;;;;;;;;;;6.20;100.00;101147.91;5043101;28;19913;-74
2022/12/28 03:15:09;;;;;;;;;;;;;;;6.22;100.00;101163.84;5038290;28;19913;-74
2022/12/28 03:31:28;;;;;;;;;;;;;;;6.28;100.00;101129.69;5046236;28;19943;-75
2022/12/28 03:34:05;;;;;;;;;;;;;;;6.25;100.00;101118.31;5034129;28;20398;-75
2022/12/28 03:36:36;;;;;;;;;;;;;;;6.27;100.00;101129.78;5049238;28;19913;-75
2022/12/28 03:39:08;;;;;;;;;;;;;;;6.28;100.00;101127.03;5034518;28;20323;-74
2022/12/28 03:41:35;;;;;;;;;;;;;;;6.28;100.00;101127.03;5038423;28;20284;-74
2022/12/28 03:44:05;;;;;;;;;;;;;;;6.30;100.00;101129.63;5048537;28;19917;-75
2022/12/28 03:46:35;;;;;;;;;;;;;;;6.32;100.00;101127.72;5043021;28;19913;-75
2022/12/28 03:49:01;;;;;;;;;;;;;;;6.33;100.00;101120.59;5037805;28;20276;-74
2022/12/28 03:51:27;;;;;;;;;;;;;;;6.34;100.00;101111.63;5034771;28;19917;-75
2022/12/28 03:53:53;;;;;;;;;;;;;;;6.36;100.00;101110.63;5035519;28;19913;-75
2022/12/28 03:56:20;;;;;;;;;;;;;;;6.39;100.00;101104.25;5032047;28;19974;-75
2022/12/28 03:58:45;;;;;;;;;;;;;;;6.40;100.00;101095.28;5049163;28;19923;-75
2022/12/28 04:01:11;;;;;;;;;;;;;;;6.42;100.00;101104.09;5050781;28;19912;-75
2022/12/28 04:03:36;;;;;;;;;;;;;;;6.44;100.00;101100.41;5029880;28;19913;-74
2022/12/28 04:06:01;;;;;;;;;;;;;;;6.46;100.00;101097.66;5037223;28;19920;-75
2022/12/28 04:08:27;;;;;;;;;;;;;;;6.49;100.00;101092.16;5048607;28;19916;-75
2022/12/28 04:10:52;;;;;;;;;;;;;;;6.50;100.00;101098.34;5053339;28;19912;-74
2022/12/28 04:13:17;;;;;;;;;;;;;;;6.51;100.00;101084.91;5052573;28;19923;-75
2022/12/28 04:15:42;;;;;;;;;;;;;;;6.55;100.00;101088.31;5040574;28;20007;-75
2022/12/28 04:18:08;;;;;;;;;;;;;;;6.55;100.00;101097.16;5035580;28;19920;-74
2022/12/28 04:20:33;;;;;;;;;;;;;;;6.58;100.00;101102.34;5049685;28;19924;-75
2022/12/28 04:22:58;;;;;;;;;;;;;;;6.61;100.00;101096.84;5042266;28;20003;-75
2022/12/28 04:25:23;;;;;;;;;;;;;;;6.63;100.00;101089.63;5034838;28;19913;-75
2022/12/28 04:27:48;;;;;;;;;;;;;;;6.65;100.00;101094.88;5036289;28;19912;-75
2022/12/28 04:30:14;;;;;;;;;;;;;;;6.67;100.00;101097.47;5050087;28;19952;-74
2022/12/28 04:32:39;;;;;;;;;;;;;;;6.69;100.00;101101.81;5048884;28;19939;-74
2022/12/28 04:35:04;;;;;;;;;;;;;;;6.73;100.00;101099.81;5034042;28;19967;-75
2022/12/28 04:37:29;;;;;;;;;;;;;;;6.73;100.00;101099.81;5035070;28;19938;-75
2022/12/28 04:39:54;;;;;;;;;;;;;;;6.74;100.00;101093.53;5049634;28;19920;-75
2022/12/28 04:42:20;;;;;;;;;;;;;;;6.76;100.00;101092.47;5050163;28;19916;-75
2022/12/28 04:44:45;;;;;;;;;;;;;;;6.77;100.00;101086.22;5052170;28;19944;-75
2022/12/28 04:47:10;;;;;;;;;;;;;;;6.79;100.00;101083.44;5040804;28;19924;-75
2022/12/28 04:49:35;;;;;;;;;;;;;;;6.79;100.00;101083.44;5046984;28;20021;-75
2022/12/28 04:52:00;;;;;;;;;;;;;;;6.79;100.00;101088.78;5048476;28;20339;-75
2022/12/28 04:54:26;;;;;;;;;;;;;;;6.80;100.00;101087.84;5043958;28;19947;-75
2022/12/28 04:56:51;;;;;;;;;;;;;;;6.81;100.00;101089.59;5050904;28;19913;-75
2022/12/28 04:59:16;;;;;;;;;;;;;;;6.83;100.00;101080.53;5034728;28;20023;-75
2022/12/28 05:01:41;;;;;;;;;;;;;;;6.83;100.00;101080.53;5040063;28;19917;-75
2022/12/28 05:04:06;;;;;;;;;;;;;;;6.85;100.00;101088.47;5037543;28;19912;-74
2022/12/28 05:06:32;;;;;;;;;;;;;;;6.86;100.00;101084.84;5039258;28;19913;-75
2022/12/28 05:08:57;;;;;;;;;;;;;;;6.87;100.00;101085.69;5045614;28;19947;-75
2022/12/28 05:11:23;;;;;;;;;;;;;;;6.87;100.00;101078.56;5050695;28;19912;-75
2022/12/28 05:13:48;;;;;;;;;;;;;;;6.89;100.00;101075.81;5048427;28;19917;-74
2022/12/28 05:16:15;;;;;;;;;;;;;;;6.88;100.00;101072.28;5036685;28;19920;-74
2022/12/28 05:18:40;;;;;;;;;;;;;;;6.89;100.00;101083.81;5049697;28;19996;-75
2022/12/28 05:21:07;;;;;;;;;;;;;;;6.88;100.00;101085.66;5051450;28;20403;-75
2022/12/28 05:23:33;;;;;;;;;;;;;;;6.89;100.00;101070.47;5050705;28;19913;-75
2022/12/28 05:25:58;;;;;;;;;;;;;;;6.90;100.00;101075.72;5040805;28;19912;-74
2022/12/28 05:28:24;;;;;;;;;;;;;;;6.89;100.00;101079.34;5036276;28;19924;-74
2022/12/28 05:30:49;;;;;;;;;;;;;;;6.91;100.00;101071.25;5051044;28;19943;-75
2022/12/28 05:33:15;;;;;;;;;;;;;;;6.91;100.00;101071.25;5049997;28;19982;-74
2022/12/28 05:35:40;;;;;;;;;;;;;;;6.92;100.00;101068.47;5042726;28;20420;-75
2022/12/28 05:38:05;;;;;;;;;;;;;;;6.93;100.00;101064.03;5038626;28;19920;-74
2022/12/28 05:40:30;;;;;;;;;;;;;;;6.92;100.00;101063.13;5035341;28;19923;-75
2022/12/28 05:42:55;;;;;;;;;;;;;;;6.93;100.00;101067.53;5035102;28;19917;-75
2022/12/28 05:45:21;;;;;;;;;;;;;;;6.94;100.00;101074.63;5042115;28;19917;-75
2022/12/28 05:47:46;;;;;;;;;;;;;;;6.96;100.00;101067.38;5050065;28;20033;-74
2022/12/28 05:50:11;;;;;;;;;;;;;;;6.97;100.00;101069.09;5050675;28;20007;-74
2022/12/28 05:52:36;;;;;;;;;;;;;;;6.99;100.00;101074.38;5041222;28;19999;-74
2022/12/28 05:55:02;;;;;;;;;;;;;;;6.98;100.00;101067.28;5048330;28;19912;-75
2022/12/28 05:57:27;;;;;;;;;;;;;;;6.99;100.00;101064.53;5032246;28;19967;-75
2022/12/28 05:59:52;;;;;;;;;;;;;;;6.99;100.00;101061.84;5032317;28;19967;-75
2022/12/28 06:02:17;;;;;;;;;;;;;;;7.00;100.00;101058.25;5040070;28;19979;-74
2022/12/28 06:04:42;;;;;;;;;;;;;;;7.01;100.00;101056.44;5034359;28;19999;-74
2022/12/28 06:07:08;;;;;;;;;;;;;;;7.03;100.00;101051.00;5046345;28;19948;-74
2022/12/28 06:09:33;;;;;;;;;;;;;;;7.04;100.00;101055.41;5045759;28;19942;-74
2022/12/28 06:11:58;;;;;;;;;;;;;;;7.04;100.00;101039.38;5052883;28;19966;-74
2022/12/28 06:14:23;;;;;;;;;;;;;;;7.05;100.00;101043.78;5038233;28;19966;-74
2022/12/28 06:16:50;;;;;;;;;;;;;;;7.05;100.00;101023.25;5041235;28;19958;-74
2022/12/28 06:19:15;;;;;;;;;;;;;;;7.06;100.00;101026.78;5040926;28;19963;-74
2022/12/28 06:21:41;;;;;;;;;;;;;;;7.07;100.00;101023.16;5045555;28;20385;-74
2022/12/28 06:24:06;;;;;;;;;;;;;;;7.06;100.00;101021.44;5040603;28;20289;-75
2022/12/28 06:26:32;;;;;;;;;;;;;;;7.06;100.00;101016.97;5045826;28;19913;-74
2022/12/28 06:28:58;;;;;;;;;;;;;;;7.07;100.00;101009.78;5040014;28;19921;-74
2022/12/28 06:31:28;;;;;;;;;;;;;;;7.09;100.00;101018.63;5037708;28;19920;-74
2022/12/28 06:33:55;;;;;;;;;;;;;;;7.08;100.00;100993.66;5037790;28;19917;-74
2022/12/28 06:36:22;;;;;;;;;;;;;;;7.10;100.00;101001.59;5050295;28;20306;-74
2022/12/28 06:38:48;;;;;;;;;;;;;;;7.09;100.00;100997.22;5038587;28;19913;-75
2022/12/28 06:41:13;;;;;;;;;;;;;;;7.09;100.00;100991.88;5040993;28;19913;-74
2022/12/28 06:43:39;;;;;;;;;;;;;;;7.09;100.00;100999.91;5031146;28;19921;-74
2022/12/28 06:46:04;;;;;;;;;;;;;;;7.09;100.00;100992.72;5035766;28;20403;-74
2022/12/28 06:48:30;;;;;;;;;;;;;;;7.13;100.00;100996.97;5034283;28;19913;-74
2022/12/28 06:50:56;;;;;;;;;;;;;;;7.13;100.00;100988.06;5038992;28;19919;-74
2022/12/28 06:53:22;;;;;;;;;;;;;;;7.13;100.00;100990.72;5037982;28;19913;-74
2022/12/28 06:55:54;;;;;;;;;;;;;;;7.14;100.00;100987.97;5033899;28;20395;-74
2022/12/28 06:58:20;;;;;;;;;;;;;;;7.15;100.00;100986.19;5042458;28;19999;-74
2022/12/28 07:00:45;;;;;;;;;;;;;;;7.15;100.00;100994.19;5044194;28;20454;-75
2022/12/28 07:03:10;;;;;;;;;;;;;;;7.17;100.00;100986.94;5045929;28;19970;-74
2022/12/28 07:05:35;;;;;;;;;;;;;;;7.17;100.00;100990.50;5034692;28;19913;-75
2022/12/28 07:08:00;;;;;;;;;;;;;;;7.18;100.00;100983.34;5042138;28;19916;-74
2022/12/28 07:10:26;;;;;;;;;;;;;;;7.18;100.00;100988.69;5042816;28;19964;-74
2022/12/28 07:12:51;;;;;;;;;;;;;;;7.19;100.00;100990.41;5051057;28;19909;-74
2022/12/28 07:15:16;;;;;;;;;;;;;;;7.20;100.00;100986.75;5041917;28;19917;-74
2022/12/28 07:17:41;;;;;;;;;;;;;;;7.22;100.00;100984.00;5040455;28;19913;-75
2022/12/28 07:20:07;;;;;;;;;;;;;;;7.23;100.00;100986.59;5034816;28;20011;-75
2022/12/28 07:22:32;;;;;;;;;;;;;;;7.23;100.00;100983.91;5044313;28;19913;-74
2022/12/28 07:24:57;;;;;;;;;;;;;;;7.23;100.00;100975.91;5033308;28;19924;-74
2022/12/28 07:27:22;;;;;;;;;;;;;;;7.26;100.00;100982.88;5031547;28;20284;-74
2022/12/28 07:29:47;;;;;;;;;;;;;;;7.25;100.00;100974.00;5036659;28;20011;-75
2022/12/28 07:32:12;;;;;;;;;;;;;;;7.26;100.00;100978.41;5035508;28;20281;-74
2022/12/28 07:34:37;;;;;;;;;;;;;;;7.28;100.00;100986.34;5037126;28;19920;-75
2022/12/28 07:37:03;;;;;;;;;;;;;;;7.31;100.00;100984.34;5039400;28;20033;-74
2022/12/28 07:39:28;;;;;;;;;;;;;;;7.31;100.00;100978.16;5039669;28;19912;-74
2022/12/28 07:41:53;;;;;;;;;;;;;;;7.30;100.00;100987.97;5047779;28;19917;-75
2022/12/28 07:44:18;;;;;;;;;;;;;;;7.32;100.00;100979.84;5038425;28;20007;-73
2022/12/28 07:46:43;;;;;;;;;;;;;;;7.34;100.00;100978.81;5041835;28;20292;-75
2022/12/28 07:49:09;;;;;;;;;;;;;;;7.34;100.00;100980.66;5055442;28;20318;-74
2022/12/28 07:51:35;;;;;;;;;;;;;;;7.33;100.00;100995.81;5054404;28;20007;-75
2022/12/28 07:54:00;;;;;;;;;;;;;;;7.33;100.00;100993.13;5053068;28;19912;-75
2022/12/28 07:56:26;;;;;;;;;;;;;;;7.35;100.00;100991.25;5047386;28;19908;-75
2022/12/28 07:58:53;;;;;;;;;;;;;;;7.35;100.00;100991.25;5047427;28;19916;-75
2022/12/28 08:01:19;;;;;;;;;;;;;;;7.38;100.00;100992.00;5050628;28;19920;-74
2022/12/28 08:03:44;;;;;;;;;;;;;;;7.38;100.00;100984.00;5060000;28;19912;-75
2022/12/28 08:06:14;;;;;;;;;;;;;;;7.38;100.00;100982.19;5057268;28;20403;-75
2022/12/28 08:08:41;;;;;;;;;;;;;;;7.40;100.00;100987.47;5038365;28;19912;-76
2022/12/28 08:11:09;;;;;;;;;;;;;;;7.41;100.00;100984.69;5041245;28;20353;-74
2022/12/28 08:13:36;;;;;;;;;;;;;;;7.43;100.00;100989.94;5041730;28;19941;-73
2022/12/28 08:16:01;;;;;;;;;;;;;;;7.43;100.00;100982.78;5040898;28;19913;-74
2022/12/28 08:18:27;;;;;;;;;;;;;;;7.42;100.00;100983.72;5040147;28;19982;-74
2022/12/28 08:20:53;;;;;;;;;;;;;;;7.44;100.00;100984.50;5046493;28;19920;-74
2022/12/28 08:23:18;;;;;;;;;;;;;;;7.46;100.00;100977.25;5044746;28;20010;-73
2022/12/28 08:25:43;;;;;;;;;;;;;;;7.46;100.00;100977.25;5034783;28;20280;-75
2022/12/28 08:28:08;;;;;;;;;;;;;;;7.46;100.00;100971.91;5034838;28;19920;-73
2022/12/28 08:30:34;;;;;;;;;;;;;;;7.48;100.00;100982.50;5042468;28;19947;-75
2022/12/28 08:32:59;;;;;;;;;;;;;;;7.48;100.00;100985.19;5044095;28;19952;-75
2022/12/28 08:35:24;;;;;;;;;;;;;;;7.49;100.00;100982.41;5041843;28;19999;-74
2022/12/28 08:37:49;;;;;;;;;;;;;;;7.51;100.00;100974.28;5049533;28;19913;-74
2022/12/28 08:40:14;;;;;;;;;;;;;;;7.52;100.00;100974.22;5044648;28;19942;-75
2022/12/28 08:42:40;;;;;;;;;;;;;;;7.52;100.00;100976.03;5035940;28;19917;-75
2022/12/28 08:45:05;;;;;;;;;;;;;;;7.53;100.00;100972.41;5040611;28;20394;-75
2022/12/28 08:47:31;;;;;;;;;;;;;;;7.54;100.00;100982.16;5045913;28;20390;-75
2022/12/28 08:49:56;;;;;;;;;;;;;;;7.56;100.00;100982.94;5050637;28;19912;-75
2022/12/28 08:52:23;;;;;;;;;;;;;;;7.55;100.00;100980.34;5042689;28;19920;-74
2022/12/28 08:54:48;;;;;;;;;;;;;;;7.58;100.00;100980.16;5042600;28;19982;-75
2022/12/28 08:57:14;;;;;;;;;;;;;;;7.58;100.00;100972.13;5039540;28;19913;-74
2022/12/28 08:59:39;;;;;;;;;;;;;;;7.57;100.00;100982.00;5036209;28;19917;-75
2022/12/28 09:02:04;;;;;;;;;;;;;;;7.59;100.00;100981.91;5049001;28;20283;-76
2022/12/28 09:04:29;;;;;;;;;;;;;;;7.58;100.00;100978.34;5054499;28;19913;-76
2022/12/28 09:06:54;;;;;;;;;;;;;;;7.59;100.00;100973.88;5054489;28;20324;-76
2022/12/28 09:09:20;;;;;;;;;;;;;;;7.59;100.00;100982.75;5033733;28;19920;-76
2022/12/28 09:11:46;;;;;;;;;;;;;;;7.60;100.00;100984.47;5034571;28;19959;-76
2022/12/28 09:14:12;;;;;;;;;;;;;;;7.61;100.00;100977.31;5049753;28;19974;-76
2022/12/28 09:16:38;;;;;;;;;;;;;;;7.61;100.00;100978.16;5045228;28;19996;-76
2022/12/28 09:19:04;;;;;;;;;;;;;;;7.64;100.00;100971.78;5034087;28;19913;-76
2022/12/28 09:21:31;;;;;;;;;;;;;;;7.64;100.00;100985.16;5032979;28;20356;-76
2022/12/28 09:23:56;;;;;;;;;;;;;;;7.63;100.00;100978.94;5037624;28;20734;-75
2022/12/28 09:26:23;;;;;;;;;;;;;;;7.64;100.00;100987.81;5050251;28;20001;-75
2022/12/28 09:28:49;;;;;;;;;;;;;;;7.63;100.00;100981.63;5049983;28;19939;-75
2022/12/28 09:31:15;;;;;;;;;;;;;;;7.65;100.00;100982.38;5050050;28;19908;-75
2022/12/28 09:36:25;;;;;;;;;;;;;;;7.66;100.00;100976.09;5052373;28;19919;-75
2022/12/28 09:38:50;;;;;;;;;;;;;;;7.67;100.00;100977.81;5052121;28;19909;-75
2022/12/28 09:41:22;;;;;;;;;;;;;;;7.69;100.00;100981.25;5051041;28;20007;-75
2022/12/28 09:43:48;;;;;;;;;;;;;;;7.72;100.00;100971.31;5052174;28;19921;-75
2022/12/28 09:46:17;;;;;;;;;;;;;;;7.74;100.00;100982.81;5049994;28;20384;-75
2022/12/28 09:48:44;;;;;;;;;;;;;;;7.73;100.00;100976.59;5052218;28;20011;-75
2022/12/28 09:51:09;;;;;;;;;;;;;;;7.77;100.00;100982.63;5050764;28;19912;-74
2022/12/28 09:53:35;;;;;;;;;;;;;;;7.79;100.00;100978.03;5052229;28;20372;-75
2022/12/28 09:56:00;;;;;;;;;;;;;;;7.80;100.00;100977.06;5048763;28;21169;-75
2022/12/28 09:58:27;;;;;;;;;;;;;;;7.82;100.00;100983.22;5049841;28;19913;-73
2022/12/28 10:00:56;;;;;;;;;;;;;;;7.83;100.00;100969.75;5049020;28;19912;-75
2022/12/28 10:03:24;;;;;;;;;;;;;;;7.84;100.00;100973.28;5051512;28;19931;-75
2022/12/28 10:05:50;;;;;;;;;;;;;;;7.85;100.00;100975.00;5046183;28;19916;-75
2022/12/28 10:08:17;;;;;;;;;;;;;;;7.85;100.00;100975.00;5048021;28;19916;-75
2022/12/28 10:10:43;;;;;;;;;;;;;;;7.87;100.00;100959.69;5051654;28;19955;-75
2022/12/28 10:13:15;;;;;;;;;;;;;;;7.88;100.00;100966.78;5050768;28;19947;-75
2022/12/28 10:15:40;;;;;;;;;;;;;;;7.90;100.00;100964.88;5061365;28;19948;-75
2022/12/28 10:18:05;;;;;;;;;;;;;;;7.93;100.00;100969.19;5047533;28;19956;-75
2022/12/28 10:20:31;;;;;;;;;;;;;;;7.93;100.00;100959.31;5050177;28;19912;-75
2022/12/28 10:22:58;;;;;;;;;;;;;;;7.94;100.00;100955.69;5051623;28;19917;-75
2022/12/28 10:25:24;;;;;;;;;;;;;;;7.96;100.00;100958.28;5048151;28;19917;-75
2022/12/28 10:27:49;;;;;;;;;;;;;;;7.96;100.00;100964.50;5050015;28;20039;-75
2022/12/28 10:30:15;;;;;;;;;;;;;;;7.96;100.00;100958.28;5049113;28;20011;-73
2022/12/28 10:32:48;;;;;;;;;;;;;;;7.96;100.00;100959.13;5049177;28;19920;-74
2022/12/28 10:35:20;;;;;;;;;;;;;;;7.99;100.00;100945.56;5050924;28;20395;-75
2022/12/28 10:37:45;;;;;;;;;;;;;;;7.96;100.00;100943.06;5051403;28;19909;-75
2022/12/28 10:40:34;;;;;;;;;;;;;;;7.97;100.00;100944.81;5048434;28;19935;-75
2022/12/28 10:42:59;;;;;;;;;;;;;;;7.98;100.00;100945.66;5047850;28;19921;-75
2022/12/28 10:45:33;;;;;;;;;;;;;;;7.99;100.00;100936.69;5048194;28;19919;-75
2022/12/28 10:47:59;;;;;;;;;;;;;;;7.98;100.00;100946.53;5049069;28;20393;-74
2022/12/28 10:50:42;;;;;;;;;;;;;;;7.99;100.00;100950.06;5048611;28;20296;-75
2022/12/28 10:53:16;;;;;;;;;;;;;;;8.00;100.00;100939.25;5050133;28;19917;-75
2022/12/28 10:55:42;;;;;;;;;;;;;;;8.01;100.00;100943.66;5048619;28;19919;-75
2022/12/28 10:58:16;;;;;;;;;;;;;;;8.02;100.00;100933.81;5050922;28;20011;-75
2022/12/28 11:00:41;;;;;;;;;;;;;;;8.08;100.00;100925.41;5045575;28;19917;-75
2022/12/28 11:03:22;;;;;;;;;;;;;;;8.03;100.00;100927.53;5048193;28;19962;-75
2022/12/28 11:05:47;;;;;;;;;;;;;;;8.03;100.00;100923.00;5046786;28;20207;-75
2022/12/28 11:08:13;;;;;;;;;;;;;;;8.03;100.00;100928.38;5049535;28;20336;-74
2022/12/28 11:10:39;;;;;;;;;;;;;;;8.03;100.00;100931.03;5048568;28;20296;-74
2022/12/28 11:13:08;;;;;;;;;;;;;;;8.05;100.00;100934.50;5050678;28;19912;-75
2022/12/28 11:15:33;;;;;;;;;;;;;;;8.07;100.00;100917.47;5047009;28;19921;-74
2022/12/28 11:18:00;;;;;;;;;;;;;;;8.05;100.00;100915.78;5047670;28;19917;-74
2022/12/28 11:20:32;;;;;;;;;;;;;;;8.05;100.00;100922.91;5050143;28;19952;-73
2022/12/28 11:22:57;;;;;;;;;;;;;;;8.05;100.00;100909.53;5049778;28;20352;-74
2022/12/28 11:25:40;;;;;;;;;;;;;;;8.08;100.00;100911.16;5053536;28;20008;-74
2022/12/28 11:28:12;;;;;;;;;;;;;;;8.09;100.00;100915.56;5050190;28;19935;-73
2022/12/28 11:30:37;;;;;;;;;;;;;;;8.10;100.00;100898.56;5049268;28;19928;-74
2022/12/28 11:33:05;;;;;;;;;;;;;;;8.14;100.00;100892.03;5047298;28;20471;-74
2022/12/28 11:35:32;;;;;;;;;;;;;;;8.13;100.00;100890.34;5050341;28;20304;-75
2022/12/28 11:37:59;;;;;;;;;;;;;;;8.13;100.00;100887.66;5046952;28;20423;-74
2022/12/28 11:40:42;;;;;;;;;;;;;;;8.14;100.00;100873.31;5049038;28;19909;-74
2022/12/28 11:43:26;;;;;;;;;;;;;;;8.14;100.00;100876.88;5049528;28;19924;-74
2022/12/28 11:45:53;;;;;;;;;;;;;;;8.15;100.00;100873.22;5049119;28;19913;-74
2022/12/28 11:48:37;;;;;;;;;;;;;;;8.16;100.00;100876.75;5047081;28;20398;-74
2022/12/28 11:51:03;;;;;;;;;;;;;;;8.16;100.00;100868.72;5049092;28;19924;-74
2022/12/28 11:53:32;;;;;;;;;;;;;;;8.17;100.00;100870.44;5048094;28;19912;-74
2022/12/28 11:56:03;;;;;;;;;;;;;;;8.18;100.00;100861.44;5058215;28;20407;-74
2022/12/28 11:58:28;;;;;;;;;;;;;;;8.16;100.00;100831.25;5062201;28;20331;-74
2022/12/28 12:00:55;;;;;;;;;;;;;;;8.18;100.00;100843.56;5046354;28;19923;-75
2022/12/28 12:03:40;;;;;;;;;;;;;;;8.16;100.00;100844.63;5050368;28;20295;-74
2022/12/28 12:06:05;;;;;;;;;;;;;;;8.17;100.00;100846.34;5050050;28;19913;-74
2022/12/28 12:08:31;;;;;;;;;;;;;;;8.16;100.00;100848.16;5048989;28;19970;-75
2022/12/28 12:11:14;;;;;;;;;;;;;;;8.18;100.00;100829.31;5050957;28;19978;-74
2022/12/28 12:13:42;;;;;;;;;;;;;;;8.18;100.00;100827.50;5047997;28;19917;-74
2022/12/28 12:16:16;;;;;;;;;;;;;;;8.20;100.00;100830.09;5050423;28;20218;-74
2022/12/28 12:18:49;;;;;;;;;;;;;;;8.21;100.00;100834.47;5050078;28;19913;-74
2022/12/28 12:21:31;;;;;;;;;;;;;;;8.20;100.00;100824.75;5049895;28;20379;-75
2022/12/28 12:24:12;;;;;;;;;;;;;;;8.19;100.00;100831.91;5048976;28;19912;-74
2022/12/28 12:26:39;;;;;;;;;;;;;;;8.18;100.00;100811.44;5052573;28;20455;-74
2022/12/28 12:29:12;;;;;;;;;;;;;;;8.19;100.00;100812.31;5053060;28;19928;-74
2022/12/28 12:31:46;;;;;;;;;;;;;;;8.19;100.00;100809.63;5052588;28;19952;-74
2022/12/28 12:34:16;;;;;;;;;;;;;;;8.19;100.00;100804.28;5050542;28;19959;-74
2022/12/28 12:36:46;;;;;;;;;;;;;;;8.19;100.00;100789.06;5052208;28;19912;-74
2022/12/28 12:39:50;;;;;;;;;;;;;;;8.20;100.00;100788.13;5053557;28;19917;-74
2022/12/28 12:42:18;;;;;;;;;;;;;;;8.22;100.00;100777.31;5012147;28;19937;-73
2022/12/28 12:44:43;;;;;;;;;;;;;;;8.22;100.00;100771.94;5029964;28;19913;-74
2022/12/28 12:47:17;;;;;;;;;;;;;;;8.26;100.00;100772.59;5031213;28;20265;-73
2022/12/28 12:49:45;;;;;;;;;;;;;;;8.26;100.00;100760.09;5030815;28;19917;-75
2022/12/28 12:52:13;;;;;;;;;;;;;;;8.27;100.00;100753.75;5030389;28;20417;-74
2022/12/28 12:54:38;;;;;;;;;;;;;;;8.28;100.00;100754.63;5028869;28;19912;-74
2022/12/28 12:57:12;;;;;;;;;;;;;;;8.30;100.00;100756.25;5030795;28;19916;-74
2022/12/28 12:59:37;;;;;;;;;;;;;;;8.30;100.00;100748.22;5040668;28;19960;-74
2022/12/28 13:02:26;;;;;;;;;;;;;;;8.31;100.00;100741.03;5030271;28;19955;-74